Alexanders Store, Texas
Current Conditions -  °F | °C
As of 9:35 PM on Friday 19 Dec 2014 (Local Time) from KOCH Reporting Station
Overcast Overcast  
Wind Chill:   Ceiling: 600
Heat Index:   Visibility: 6mi
Dew Point:   Wind: 3mph
Humidity: 93%   Direction: 50°NE
Pressure: 30.17"   Gusts: NA
Location:  31.7022°N, 93.9592°W
Report Text: KOCH 200335Z AUTO 05003KT 6SM OVC006 08/07 A3017 RMK AO1
Loading
Personal Weather Stations






























Interactive Weather Map New forecast layout! Learn more

10-Day Weather Forecast

Advertisements
Track Severe Weather on mobile